createdAt,value
2022-11-23T00:01:41.129Z,4.87
2022-11-23T00:06:48.099Z,4.10
2022-11-23T00:11:51.187Z,4.60
2022-11-23T00:16:54.338Z,3.63
2022-11-23T00:21:59.779Z,4.03
2022-11-23T00:27:02.980Z,4.30
2022-11-23T00:32:06.488Z,4.10
2022-11-23T00:37:11.070Z,3.67
2022-11-23T00:42:14.207Z,3.87
2022-11-23T00:47:17.375Z,4.00
2022-11-23T00:52:21.879Z,4.10
2022-11-23T00:57:25.051Z,4.67
2022-11-23T01:02:28.202Z,4.40
2022-11-23T01:07:32.726Z,3.50
2022-11-23T01:12:35.872Z,3.43
2022-11-23T01:17:39.009Z,3.63
2022-11-23T01:22:43.571Z,4.00
2022-11-23T01:27:46.630Z,3.70
2022-11-23T01:32:50.938Z,3.97
2022-11-23T01:37:55.447Z,3.90
2022-11-23T01:43:00.226Z,3.70
2022-11-23T01:48:05.785Z,4.00
2022-11-23T01:53:10.451Z,3.97
2022-11-23T01:58:16.924Z,3.90
2022-11-23T02:03:20.107Z,4.20
2022-11-23T02:08:24.681Z,4.10
2022-11-23T02:13:29.994Z,3.77
2022-11-23T02:18:35.321Z,3.63
2022-11-23T02:23:48.725Z,3.33
2022-11-23T02:28:57.238Z,3.97
2022-11-23T02:34:00.508Z,2.83
2022-11-23T02:39:08.444Z,3.20
2022-11-23T02:44:30.977Z,3.80
2022-11-23T02:49:34.423Z,3.60
2022-11-23T02:54:37.716Z,3.80
2022-11-23T02:59:42.301Z,3.77
2022-11-23T03:04:45.420Z,2.93
2022-11-23T03:09:48.560Z,2.90
2022-11-23T03:14:53.045Z,3.23
2022-11-23T03:19:56.237Z,3.60
2022-11-23T03:24:59.347Z,3.57
2022-11-23T03:30:03.855Z,2.63
2022-11-23T03:35:07.900Z,2.67
2022-11-23T03:40:12.230Z,2.57
2022-11-23T03:45:16.752Z,3.60
2022-11-23T03:50:19.844Z,2.67
2022-11-23T03:55:22.993Z,3.03
2022-11-23T04:00:27.686Z,2.83
2022-11-23T04:05:30.836Z,2.73
2022-11-23T04:10:34.084Z,2.40
2022-11-23T04:15:38.574Z,2.80
2022-11-23T04:20:41.697Z,3.10
2022-11-23T04:25:44.815Z,3.00
2022-11-23T04:30:49.572Z,2.30
2022-11-23T04:35:52.763Z,2.37
2022-11-23T04:40:55.921Z,2.10
2022-11-23T04:46:00.385Z,2.93
2022-11-23T04:51:03.529Z,2.77
2022-11-23T04:56:07.247Z,3.10
2022-11-23T05:01:11.842Z,3.20
2022-11-23T05:06:14.995Z,3.73
2022-11-23T05:11:18.120Z,3.93
2022-11-23T05:16:22.587Z,3.37
2022-11-23T05:21:25.809Z,3.07
2022-11-23T05:26:28.941Z,3.10
2022-11-23T05:31:33.676Z,2.80
2022-11-23T05:36:41.920Z,2.60
2022-11-23T05:41:45.418Z,2.80
2022-11-23T05:46:49.950Z,2.40
2022-11-23T05:51:53.096Z,1.90
2022-11-23T05:56:56.186Z,1.90
2022-11-23T06:02:00.646Z,2.27
2022-11-23T06:07:04.088Z,2.53
2022-11-23T06:12:07.941Z,2.70
2022-11-23T06:17:12.423Z,2.40
2022-11-23T06:22:16.236Z,2.17
2022-11-23T06:27:19.296Z,2.50
2022-11-23T06:32:23.786Z,3.10
2022-11-23T06:37:26.853Z,3.27
2022-11-23T06:42:39.468Z,2.47
2022-11-23T06:47:44.961Z,3.00
2022-11-23T06:52:48.022Z,3.10
2022-11-23T06:57:51.398Z,3.80
2022-11-23T07:02:56.591Z,3.30
2022-11-23T07:07:59.673Z,3.07
2022-11-23T07:13:05.908Z,4.10
2022-11-23T07:18:12.790Z,4.30
2022-11-23T07:23:15.865Z,4.00
2022-11-23T07:28:19.137Z,3.93
2022-11-23T07:33:23.594Z,2.80
2022-11-23T07:38:26.653Z,3.10
2022-11-23T07:43:29.725Z,4.43
2022-11-23T07:48:36.510Z,6.93
2022-11-23T07:53:39.878Z,7.27
2022-11-23T07:58:43.041Z,6.43
2022-11-23T08:03:48.114Z,9.20
2022-11-23T08:08:51.294Z,9.63
2022-11-23T08:13:54.967Z,9.77
2022-11-23T08:18:59.493Z,6.17
2022-11-23T08:24:02.681Z,9.53
2022-11-23T08:29:05.987Z,4.87
2022-11-23T08:34:10.498Z,4.30
2022-11-23T08:39:14.789Z,5.90
2022-11-23T08:44:17.891Z,4.37
2022-11-23T08:49:22.381Z,4.43
2022-11-23T08:54:25.554Z,5.77
2022-11-23T08:59:28.692Z,5.97
2022-11-23T09:04:33.333Z,4.90
2022-11-23T09:09:36.647Z,5.00
2022-11-23T09:14:39.785Z,4.20
2022-11-23T09:19:44.263Z,3.83
2022-11-23T09:24:47.390Z,4.20
2022-11-23T09:29:50.472Z,4.23
2022-11-23T09:34:54.924Z,4.10
2022-11-23T09:39:58.061Z,3.63
2022-11-23T09:45:19.853Z,3.73
2022-11-23T09:50:28.904Z,4.10
2022-11-23T09:55:38.975Z,3.97
2022-11-23T10:00:47.324Z,4.10
2022-11-23T10:06:03.776Z,4.73
2022-11-23T10:11:32.190Z,4.80
2022-11-23T10:16:42.744Z,4.80
2022-11-23T10:21:57.814Z,3.50
2022-11-23T10:27:01.009Z,3.50
2022-11-23T10:32:06.149Z,3.93
2022-11-23T10:37:14.398Z,3.53
2022-11-23T10:42:24.225Z,3.00
2022-11-23T10:47:39.808Z,2.67
2022-11-23T10:52:52.304Z,2.70
2022-11-23T10:57:55.985Z,2.27
2022-11-23T11:03:00.167Z,2.00
2022-11-23T11:08:14.554Z,3.60
2022-11-23T11:13:26.207Z,2.77
2022-11-23T11:18:32.440Z,2.00
2022-11-23T11:23:42.366Z,2.10
2022-11-23T11:28:50.239Z,1.70
2022-11-23T11:33:58.833Z,2.10
2022-11-23T11:39:18.396Z,1.87
2022-11-23T11:44:25.034Z,1.90
2022-11-23T11:49:32.448Z,1.40
2022-11-23T11:54:43.819Z,1.40
2022-11-23T11:59:50.203Z,1.30
2022-11-23T12:05:04.715Z,1.30
2022-11-23T12:10:15.200Z,1.33
2022-11-23T12:15:47.818Z,1.80
2022-11-23T12:20:53.503Z,5.23
2022-11-23T12:26:17.717Z,2.03
2022-11-23T12:31:28.420Z,1.67
2022-11-23T12:36:51.520Z,1.60
2022-11-23T12:42:03.960Z,1.53
2022-11-23T12:47:17.744Z,1.63
2022-11-23T12:52:38.958Z,1.70
2022-11-23T12:57:50.257Z,1.80
2022-11-23T13:03:29.907Z,1.80
2022-11-23T13:09:01.176Z,1.70
2022-11-23T13:14:17.207Z,1.63
2022-11-23T13:19:37.492Z,1.60
2022-11-23T13:24:43.093Z,1.67
2022-11-23T13:29:58.732Z,1.70
2022-11-23T13:35:02.009Z,1.70
2022-11-23T13:40:06.290Z,1.63
2022-11-23T13:45:27.008Z,1.40
2022-11-23T13:50:30.468Z,1.50
2022-11-23T13:55:37.136Z,1.43
2022-11-23T14:00:49.758Z,1.40
2022-11-23T14:06:01.164Z,1.47
2022-11-23T14:11:13.255Z,1.73
2022-11-23T14:16:24.384Z,1.87
2022-11-23T14:21:33.980Z,1.83
2022-11-23T14:26:46.388Z,1.63
2022-11-23T14:32:14.947Z,2.13
2022-11-23T14:37:26.775Z,1.77
2022-11-23T14:42:32.440Z,1.53
2022-11-23T14:47:37.009Z,1.80
2022-11-23T14:52:40.200Z,1.70
2022-11-23T14:57:47.470Z,1.40
2022-11-23T15:02:52.972Z,1.50
2022-11-23T15:08:00.005Z,1.70
2022-11-23T15:13:03.196Z,1.70
2022-11-23T15:18:07.711Z,2.20
2022-11-23T15:23:28.152Z,2.23
2022-11-23T15:28:35.214Z,2.20
2022-11-23T15:33:39.982Z,2.30
2022-11-23T15:38:43.327Z,2.97
2022-11-23T15:43:54.210Z,3.00
2022-11-23T15:48:59.232Z,3.07
2022-11-23T15:54:02.828Z,3.90
2022-11-23T15:59:17.457Z,5.37
2022-11-23T16:04:29.062Z,6.40
2022-11-23T16:09:51.261Z,6.90
2022-11-23T16:14:57.267Z,8.33
2022-11-23T16:20:05.645Z,10.50
2022-11-23T16:25:17.520Z,8.07
2022-11-23T16:30:25.224Z,15.67
2022-11-23T16:35:29.776Z,17.33
2022-11-23T16:40:32.883Z,18.60
2022-11-23T16:45:36.014Z,15.40
2022-11-23T16:50:40.427Z,13.53
2022-11-23T16:55:43.946Z,11.27
2022-11-23T17:00:48.979Z,8.63
2022-11-23T17:05:53.427Z,9.27
2022-11-23T17:10:57.264Z,8.30
2022-11-23T17:16:00.613Z,7.50
2022-11-23T17:21:05.322Z,7.10
2022-11-23T17:26:13.513Z,6.90
2022-11-23T17:31:16.713Z,9.10
2022-11-23T17:36:21.455Z,9.43
2022-11-23T17:41:24.824Z,9.17
2022-11-23T17:46:31.514Z,8.13
2022-11-23T17:51:36.218Z,8.67
2022-11-23T17:56:40.015Z,6.87
2022-11-23T18:01:43.117Z,7.43
2022-11-23T18:06:47.772Z,7.13
2022-11-23T18:11:50.834Z,7.00
2022-11-23T18:16:53.935Z,7.00
2022-11-23T18:21:58.447Z,5.53
2022-11-23T18:27:01.603Z,5.83
2022-11-23T18:32:06.702Z,5.50
2022-11-23T18:37:11.269Z,4.63
2022-11-23T18:42:14.708Z,4.33
2022-11-23T18:47:17.771Z,4.30
2022-11-23T18:52:22.345Z,5.40
2022-11-23T18:57:25.645Z,5.13
2022-11-23T19:02:29.066Z,3.97
2022-11-23T19:07:33.567Z,4.00
2022-11-23T19:12:39.262Z,4.43
2022-11-23T19:17:42.427Z,4.17
2022-11-23T19:22:47.221Z,5.87
2022-11-23T19:27:51.498Z,5.80
2022-11-23T19:32:54.712Z,8.80
2022-11-23T19:37:59.707Z,8.97
2022-11-23T19:43:02.846Z,8.40
2022-11-23T19:48:06.234Z,7.37
2022-11-23T19:53:12.847Z,7.90
2022-11-23T19:58:16.548Z,10.00
2022-11-23T20:03:20.111Z,9.60
2022-11-23T20:08:24.614Z,9.20
2022-11-23T20:13:27.680Z,9.30
2022-11-23T20:18:30.761Z,8.07
2022-11-23T20:23:35.213Z,5.53
2022-11-23T20:28:38.411Z,5.30
2022-11-23T20:33:41.572Z,4.80
2022-11-23T20:38:46.725Z,5.10
2022-11-23T20:43:53.224Z,5.03
2022-11-23T20:48:57.629Z,4.47
2022-11-23T20:54:02.105Z,3.10
2022-11-23T20:59:05.231Z,2.60
2022-11-23T21:04:08.940Z,3.00
2022-11-23T21:09:13.565Z,2.20
2022-11-23T21:14:18.820Z,2.27
2022-11-23T21:19:23.381Z,1.70
2022-11-23T21:24:29.199Z,2.27
2022-11-23T21:29:32.384Z,1.93
2022-11-23T21:34:35.783Z,1.37
2022-11-23T21:39:41.251Z,1.90
2022-11-23T21:44:44.404Z,1.60
2022-11-23T21:49:47.682Z,1.53
2022-11-23T21:54:52.169Z,2.43
2022-11-23T21:59:55.305Z,3.10
2022-11-23T22:04:58.408Z,2.87
2022-11-23T22:10:02.964Z,1.63
2022-11-23T22:15:06.977Z,1.50
2022-11-23T22:20:11.675Z,2.00
2022-11-23T22:25:16.667Z,2.30
2022-11-23T22:30:20.016Z,2.07
2022-11-23T22:35:23.087Z,2.77
2022-11-23T22:40:32.664Z,2.20
2022-11-23T22:45:35.770Z,2.03
2022-11-23T22:50:39.013Z,1.90
2022-11-23T22:55:43.528Z,1.80
2022-11-23T23:00:46.788Z,1.97
2022-11-23T23:05:55.368Z,2.03
2022-11-23T23:11:04.825Z,2.33
2022-11-23T23:16:09.874Z,2.30
2022-11-23T23:21:14.659Z,2.47
2022-11-23T23:26:21.245Z,2.50
2022-11-23T23:31:24.737Z,2.57
2022-11-23T23:36:27.923Z,2.70
2022-11-23T23:41:32.417Z,2.57
2022-11-23T23:46:35.518Z,2.70
2022-11-23T23:51:39.005Z,2.80
2022-11-23T23:56:43.441Z,2.90
